createdAt,value
2018-02-17T00:00:22.634Z,10.87
2018-02-17T00:02:50.124Z,5.50
2018-02-17T00:05:17.546Z,11.77
2018-02-17T00:07:44.988Z,11.33
2018-02-17T00:10:12.466Z,14.10
2018-02-17T00:12:39.891Z,6.77
2018-02-17T00:15:07.334Z,14.17
2018-02-17T00:17:34.824Z,6.10
2018-02-17T00:20:02.247Z,12.20
2018-02-17T00:22:29.691Z,3.73
2018-02-17T00:24:57.159Z,7.70
2018-02-17T00:27:24.647Z,11.60
2018-02-17T00:29:52.079Z,6.37
2018-02-17T00:32:19.511Z,14.53
2018-02-17T00:34:46.942Z,4.93
2018-02-17T00:37:14.379Z,14.67
2018-02-17T00:39:41.855Z,6.80
2018-02-17T00:42:09.343Z,10.07
2018-02-17T00:44:36.827Z,4.17
2018-02-17T00:47:04.772Z,5.77
2018-02-17T00:49:32.200Z,8.00
2018-02-17T00:51:59.630Z,7.23
2018-02-17T00:54:27.163Z,6.83
2018-02-17T00:56:54.591Z,4.23
2018-02-17T00:59:22.026Z,5.43
2018-02-17T01:01:49.454Z,12.60
2018-02-17T01:04:16.888Z,8.67
2018-02-17T01:06:44.310Z,9.97
2018-02-17T01:09:11.748Z,10.70
2018-02-17T01:11:39.174Z,12.13
2018-02-17T01:14:06.592Z,6.60
2018-02-17T01:16:34.795Z,11.50
2018-02-17T01:19:03.659Z,4.93
2018-02-17T01:21:31.095Z,12.10
2018-02-17T01:23:59.283Z,7.87
2018-02-17T01:26:27.472Z,8.00
2018-02-17T01:28:54.991Z,4.80
2018-02-17T01:31:22.428Z,9.03
2018-02-17T01:33:49.851Z,5.27
2018-02-17T01:36:17.271Z,3.33
2018-02-17T01:38:44.703Z,7.40
2018-02-17T01:41:12.895Z,6.20
2018-02-17T01:43:41.091Z,5.90
2018-02-17T01:46:09.279Z,5.40
2018-02-17T01:48:36.799Z,3.20
2018-02-17T01:51:04.702Z,8.40
2018-02-17T01:53:32.135Z,25.57
2018-02-17T01:55:59.718Z,14.80
2018-02-17T01:58:27.143Z,21.87
2018-02-17T02:00:54.575Z,6.97
2018-02-17T02:03:22.107Z,12.17
2018-02-17T02:05:49.547Z,8.03
2018-02-17T02:08:17.739Z,5.03
2018-02-17T02:10:45.159Z,5.80
2018-02-17T02:13:12.596Z,4.47
2018-02-17T02:15:40.023Z,5.60
2018-02-17T02:18:07.508Z,6.30
2018-02-17T02:20:34.939Z,5.37
2018-02-17T02:23:02.367Z,10.37
2018-02-17T02:25:29.857Z,4.90
2018-02-17T02:27:58.052Z,4.60
2018-02-17T02:30:25.471Z,7.80
2018-02-17T02:32:53.013Z,5.77
2018-02-17T02:35:20.494Z,5.00
2018-02-17T02:37:47.972Z,5.43
2018-02-17T02:40:15.458Z,5.73
2018-02-17T02:42:42.884Z,6.90
2018-02-17T02:45:10.319Z,11.87
2018-02-17T02:47:37.807Z,10.10
2018-02-17T02:50:05.284Z,9.70
2018-02-17T02:52:33.004Z,7.70
2018-02-17T02:55:00.419Z,4.03
2018-02-17T02:57:28.651Z,11.13
2018-02-17T02:59:56.100Z,3.93
2018-02-17T03:02:24.288Z,11.57
2018-02-17T03:04:51.809Z,7.53
2018-02-17T03:07:19.243Z,4.80
2018-02-17T03:09:46.774Z,7.27
2018-02-17T03:12:14.203Z,4.73
2018-02-17T03:14:42.386Z,7.50
2018-02-17T03:17:09.938Z,9.27
2018-02-17T03:19:37.419Z,5.90
2018-02-17T03:22:04.848Z,8.20
2018-02-17T03:24:32.281Z,9.73
2018-02-17T03:26:59.698Z,4.37
2018-02-17T03:29:27.127Z,9.27
2018-02-17T03:31:54.615Z,7.33
2018-02-17T03:34:22.111Z,14.03
2018-02-17T03:36:49.591Z,10.00
2018-02-17T03:39:17.007Z,13.00
2018-02-17T03:41:44.448Z,8.20
2018-02-17T03:44:11.879Z,8.20
2018-02-17T03:46:40.133Z,13.50
2018-02-17T03:49:07.559Z,25.30
2018-02-17T03:51:35.746Z,21.10
2018-02-17T03:54:04.326Z,27.77
2018-02-17T03:56:31.791Z,37.13
2018-02-17T03:58:59.270Z,20.60
2018-02-17T04:01:26.706Z,11.57
2018-02-17T04:03:54.131Z,14.57
2018-02-17T04:06:21.567Z,18.10
2018-02-17T04:08:49.094Z,18.47
2018-02-17T04:11:16.579Z,13.30
2018-02-17T04:13:44.059Z,12.50
2018-02-17T04:16:11.546Z,14.90
2018-02-17T04:18:38.975Z,10.30
2018-02-17T04:21:06.504Z,15.73
2018-02-17T04:23:34.088Z,19.43
2018-02-17T04:26:01.515Z,14.20
2018-02-17T04:28:28.954Z,14.80
2018-02-17T04:30:56.418Z,15.10
2018-02-17T04:33:23.847Z,11.60
2018-02-17T04:35:51.392Z,14.30
2018-02-17T04:38:18.839Z,15.10
2018-02-17T04:40:51.684Z,12.57
2018-02-17T04:43:19.538Z,11.63
2018-02-17T04:45:50.383Z,14.60
2018-02-17T04:48:19.250Z,12.43
2018-02-17T04:50:47.575Z,12.43
2018-02-17T04:53:18.618Z,13.50
2018-02-17T04:55:51.711Z,11.00
2018-02-17T04:58:21.583Z,16.00
2018-02-17T05:00:54.791Z,16.67
2018-02-17T05:06:30.759Z,13.63
2018-02-17T05:09:07.543Z,13.20
2018-02-17T05:11:35.758Z,17.87
2018-02-17T05:14:03.192Z,14.50
2018-02-17T05:16:37.071Z,11.97
2018-02-17T05:19:10.100Z,16.00
2018-02-17T05:21:38.467Z,14.17
2018-02-17T05:24:08.367Z,15.50
2018-02-17T05:26:54.256Z,13.13
2018-02-17T05:29:26.959Z,16.67
2018-02-17T05:31:57.862Z,16.47
2018-02-17T05:34:30.073Z,14.70
2018-02-17T05:36:58.267Z,18.87
2018-02-17T05:39:41.495Z,16.50
2018-02-17T05:42:13.604Z,12.70
2018-02-17T05:44:47.443Z,18.87
2018-02-17T05:47:31.583Z,16.63
2018-02-17T05:50:01.577Z,16.43
2018-02-17T05:52:29.781Z,25.67
2018-02-17T05:54:57.264Z,15.73
2018-02-17T05:57:24.705Z,15.60
2018-02-17T05:59:52.180Z,13.70
2018-02-17T06:02:19.613Z,15.80
2018-02-17T06:04:47.056Z,14.60
2018-02-17T06:07:14.487Z,13.47
2018-02-17T06:09:42.716Z,14.37
2018-02-17T06:12:10.184Z,17.73
2018-02-17T06:14:37.620Z,17.63
2018-02-17T06:17:05.068Z,19.53
2018-02-17T06:19:32.539Z,21.67
2018-02-17T06:21:59.995Z,12.60
2018-02-17T06:24:27.458Z,13.20
2018-02-17T06:26:54.912Z,21.60
2018-02-17T06:29:22.373Z,16.07
2018-02-17T06:31:49.832Z,16.87
2018-02-17T06:34:17.396Z,12.70
2018-02-17T06:36:44.852Z,12.77
2018-02-17T06:39:12.303Z,15.80
2018-02-17T06:41:39.757Z,16.63
2018-02-17T06:44:07.188Z,16.53
2018-02-17T06:46:34.688Z,15.30
2018-02-17T06:49:02.135Z,14.20
2018-02-17T06:51:29.582Z,13.50
2018-02-17T06:53:57.168Z,16.37
2018-02-17T06:56:24.616Z,14.23
2018-02-17T06:58:52.163Z,19.27
2018-02-17T07:01:19.944Z,14.90
2018-02-17T07:03:47.488Z,15.50
2018-02-17T07:06:14.917Z,15.53
2018-02-17T07:08:42.344Z,11.37
2018-02-17T07:11:10.589Z,16.70
2018-02-17T07:13:38.126Z,11.30
2018-02-17T07:16:05.596Z,15.20
2018-02-17T07:18:33.143Z,13.37
2018-02-17T07:21:00.581Z,14.17
2018-02-17T07:23:28.007Z,16.03
2018-02-17T07:25:56.220Z,14.70
2018-02-17T07:28:23.663Z,14.03
2018-02-17T07:30:51.243Z,15.53
2018-02-17T07:33:18.691Z,14.30
2018-02-17T07:35:46.127Z,17.23
2018-02-17T07:38:13.619Z,20.20
2018-02-17T07:40:41.076Z,16.40
2018-02-17T07:43:08.552Z,18.30
2018-02-17T07:45:35.979Z,16.83
2018-02-17T07:48:03.421Z,13.50
2018-02-17T07:50:30.902Z,11.23
2018-02-17T07:52:58.475Z,14.10
2018-02-17T07:55:26.021Z,15.40
2018-02-17T07:57:53.906Z,15.50
2018-02-17T08:00:21.448Z,12.47
2018-02-17T08:02:48.905Z,15.13
2018-02-17T08:05:16.332Z,9.77
2018-02-17T08:07:43.762Z,16.30
2018-02-17T08:10:11.963Z,13.33
2018-02-17T08:12:39.447Z,10.50
2018-02-17T08:15:06.892Z,10.40
2018-02-17T08:17:34.351Z,17.20
2018-02-17T08:20:02.516Z,14.03
2018-02-17T08:22:29.956Z,12.13
2018-02-17T08:24:57.463Z,14.67
2018-02-17T08:27:24.904Z,16.20
2018-02-17T08:29:52.363Z,14.77
2018-02-17T08:32:19.816Z,12.07
2018-02-17T08:34:47.252Z,15.07
2018-02-17T08:37:14.682Z,15.00
2018-02-17T08:39:42.902Z,12.10
2018-02-17T08:42:10.327Z,18.83
2018-02-17T08:44:37.758Z,15.07
2018-02-17T08:47:06.100Z,13.70
2018-02-17T08:49:33.960Z,15.70
2018-02-17T08:52:01.403Z,17.80
2018-02-17T08:54:28.855Z,17.10
2018-02-17T08:56:56.336Z,14.60
2018-02-17T08:59:23.788Z,18.27
2018-02-17T09:01:51.248Z,14.80
2018-02-17T09:04:18.703Z,16.07
2018-02-17T09:06:46.159Z,16.80
2018-02-17T09:09:13.595Z,14.83
2018-02-17T09:11:41.028Z,13.73
2018-02-17T09:14:09.248Z,14.73
2018-02-17T09:16:36.687Z,17.60
2018-02-17T09:19:04.160Z,20.17
2018-02-17T09:21:31.725Z,21.93
2018-02-17T09:23:59.622Z,16.23
2018-02-17T09:26:27.060Z,13.97
2018-02-17T09:28:54.498Z,16.57
2018-02-17T09:31:21.960Z,14.90
2018-02-17T09:33:49.412Z,14.63
2018-02-17T09:36:16.856Z,14.87
2018-02-17T09:38:44.335Z,16.90
2018-02-17T09:41:12.095Z,18.30
2018-02-17T09:43:39.881Z,22.83
2018-02-17T09:46:07.417Z,15.60
2018-02-17T09:48:34.856Z,19.20
2018-02-17T09:51:02.340Z,17.43
2018-02-17T09:53:29.769Z,18.50
2018-02-17T09:55:57.195Z,20.83
2018-02-17T09:58:25.399Z,22.13
2018-02-17T10:00:52.832Z,23.43
2018-02-17T10:03:20.332Z,19.67
2018-02-17T10:05:47.768Z,17.63
2018-02-17T10:08:15.252Z,18.17
2018-02-17T10:10:42.692Z,17.60
2018-02-17T10:13:10.133Z,17.97
2018-02-17T10:15:37.616Z,15.63
2018-02-17T10:18:05.052Z,17.13
2018-02-17T10:20:32.494Z,17.03
2018-02-17T10:22:59.992Z,16.50
2018-02-17T10:25:27.449Z,14.27
2018-02-17T10:27:54.916Z,17.37
2018-02-17T10:30:22.463Z,14.90
2018-02-17T10:32:49.922Z,17.13
2018-02-17T10:35:17.381Z,14.10
2018-02-17T10:37:44.820Z,16.77
2018-02-17T10:40:12.295Z,18.33
2018-02-17T10:42:39.730Z,22.73
2018-02-17T10:45:07.155Z,18.53
2018-02-17T10:47:34.595Z,18.90
2018-02-17T10:50:02.791Z,14.20
2018-02-17T10:52:30.232Z,11.07
2018-02-17T10:54:58.456Z,13.77
2018-02-17T10:57:25.884Z,13.20
2018-02-17T10:59:53.315Z,12.93
2018-02-17T11:02:21.520Z,14.17
2018-02-17T11:04:48.955Z,13.80
2018-02-17T11:07:17.180Z,13.73
2018-02-17T11:09:44.604Z,11.43
2018-02-17T11:12:12.040Z,14.70
2018-02-17T11:14:40.238Z,24.27
2018-02-17T11:17:07.674Z,19.10
2018-02-17T11:19:35.875Z,15.30
2018-02-17T11:22:03.309Z,12.87
2018-02-17T11:24:31.634Z,13.77
2018-02-17T11:26:59.088Z,13.13
2018-02-17T11:29:26.576Z,13.00
2018-02-17T11:31:54.121Z,15.70
2018-02-17T11:34:21.566Z,15.67
2018-02-17T11:36:49.022Z,18.33
2018-02-17T11:39:16.457Z,15.30
2018-02-17T11:41:43.908Z,20.07
2018-02-17T11:44:12.006Z,17.07
2018-02-17T11:46:39.467Z,12.73
2018-02-17T11:49:06.899Z,15.33
2018-02-17T11:51:34.379Z,13.73
2018-02-17T11:54:01.818Z,14.50
2018-02-17T11:56:29.249Z,15.67
2018-02-17T11:58:56.701Z,18.93
2018-02-17T12:01:25.024Z,12.47
2018-02-17T12:03:52.488Z,15.30
2018-02-17T12:06:19.938Z,13.60
2018-02-17T12:08:47.376Z,16.17
2018-02-17T12:11:14.815Z,12.57
2018-02-17T12:13:42.822Z,10.23
2018-02-17T12:16:10.273Z,14.73
2018-02-17T12:18:37.710Z,14.40
2018-02-17T12:21:05.194Z,17.57
2018-02-17T12:23:32.583Z,11.00
2018-02-17T12:26:00.780Z,13.37
2018-02-17T12:28:28.236Z,15.53
2018-02-17T12:30:56.456Z,14.53
2018-02-17T12:33:23.903Z,15.50
2018-02-17T12:35:51.339Z,11.93
2018-02-17T12:38:18.872Z,13.20
2018-02-17T12:40:47.080Z,17.40
2018-02-17T12:43:14.520Z,14.83
2018-02-17T12:45:41.999Z,11.17
2018-02-17T12:48:09.428Z,15.13
2018-02-17T12:50:36.866Z,9.20
2018-02-17T12:53:05.064Z,16.30
2018-02-17T12:55:32.500Z,13.03
2018-02-17T12:58:00.699Z,15.00
2018-02-17T13:00:28.140Z,21.20
2018-02-17T13:02:55.580Z,12.80
2018-02-17T13:05:23.780Z,21.83
2018-02-17T13:07:51.680Z,20.43
2018-02-17T13:10:19.107Z,34.17
2018-02-17T13:12:46.577Z,35.30
2018-02-17T13:15:14.020Z,68.13
2018-02-17T13:17:41.456Z,22.93
2018-02-17T13:20:09.680Z,13.27
2018-02-17T13:22:37.140Z,14.23
2018-02-17T13:25:04.596Z,16.80
2018-02-17T13:27:32.056Z,13.43
2018-02-17T13:29:59.507Z,17.23
2018-02-17T13:32:26.969Z,12.77
2018-02-17T13:34:54.424Z,16.50
2018-02-17T13:37:21.892Z,18.80
2018-02-17T13:39:49.327Z,17.47
2018-02-17T13:42:17.316Z,16.67
2018-02-17T13:44:44.763Z,18.27
2018-02-17T13:47:12.196Z,18.33
2018-02-17T13:49:39.655Z,17.60
2018-02-17T13:52:07.092Z,19.40
2018-02-17T13:54:35.332Z,15.23
2018-02-17T13:57:04.303Z,21.87
2018-02-17T13:59:31.733Z,23.07
2018-02-17T14:01:59.221Z,17.27
2018-02-17T14:04:26.653Z,16.37
2018-02-17T14:06:54.092Z,17.80
2018-02-17T14:09:21.527Z,14.47
2018-02-17T14:11:49.768Z,20.57
2018-02-17T14:14:17.203Z,20.27
2018-02-17T14:16:44.631Z,21.53
2018-02-17T14:19:12.080Z,17.03
2018-02-17T14:21:40.307Z,16.40
2018-02-17T14:24:07.765Z,20.70
2018-02-17T14:26:35.211Z,21.10
2018-02-17T14:29:02.676Z,31.03
2018-02-17T14:31:30.111Z,18.07
2018-02-17T14:33:57.545Z,27.30
2018-02-17T14:36:24.997Z,19.87
2018-02-17T14:38:53.200Z,20.73
2018-02-17T14:41:20.647Z,21.63
2018-02-17T14:43:48.391Z,17.87
2018-02-17T14:46:16.593Z,17.33
2018-02-17T14:48:44.045Z,19.63
2018-02-17T14:51:11.483Z,19.37
2018-02-17T14:53:39.683Z,17.53
2018-02-17T14:56:07.122Z,20.77
2018-02-17T14:58:34.552Z,20.83
2018-02-17T15:01:03.325Z,25.30
2018-02-17T15:03:30.855Z,25.73
2018-02-17T15:05:58.317Z,18.43
2018-02-17T15:08:25.748Z,19.93
2018-02-17T15:10:53.197Z,20.10
2018-02-17T15:13:20.628Z,18.13
2018-02-17T15:15:48.839Z,20.77
2018-02-17T15:18:16.267Z,18.37
2018-02-17T15:20:44.499Z,21.30
2018-02-17T15:23:11.932Z,19.63
2018-02-17T15:25:39.379Z,22.33
2018-02-17T15:28:06.803Z,23.17
2018-02-17T15:30:35.068Z,21.00
2018-02-17T15:33:02.591Z,27.70
2018-02-17T15:35:30.060Z,18.63
2018-02-17T15:37:57.548Z,17.50
2018-02-17T15:40:24.965Z,25.43
2018-02-17T15:42:52.429Z,21.13
2018-02-17T15:45:19.855Z,22.10
2018-02-17T15:47:47.311Z,16.20
2018-02-17T15:50:14.743Z,20.13
2018-02-17T15:52:43.014Z,19.73
2018-02-17T15:55:10.532Z,22.43
2018-02-17T15:57:37.960Z,17.50
2018-02-17T16:00:05.453Z,14.27
2018-02-17T16:02:32.884Z,17.80
2018-02-17T16:05:00.317Z,18.53
2018-02-17T16:07:27.768Z,14.50
2018-02-17T16:09:55.204Z,18.80
2018-02-17T16:12:23.417Z,18.97
2018-02-17T16:14:50.878Z,20.47
2018-02-17T16:17:18.312Z,19.33
2018-02-17T16:19:45.739Z,27.13
2018-02-17T16:22:13.189Z,26.70
2018-02-17T16:24:40.616Z,21.07
2018-02-17T16:27:08.056Z,28.67
2018-02-17T16:29:35.499Z,19.90
2018-02-17T16:32:02.932Z,16.63
2018-02-17T16:34:31.163Z,21.23
2018-02-17T16:36:58.628Z,22.33
2018-02-17T16:39:26.060Z,21.40
2018-02-17T16:41:53.513Z,22.97
2018-02-17T16:44:20.940Z,16.57
2018-02-17T16:46:49.152Z,24.87
2018-02-17T16:49:16.594Z,24.13
2018-02-17T16:51:44.080Z,17.53
2018-02-17T16:54:11.638Z,13.67
2018-02-17T16:56:39.096Z,27.27
2018-02-17T16:59:06.532Z,27.83
2018-02-17T17:01:34.011Z,20.50
2018-02-17T17:04:02.334Z,17.93
2018-02-17T17:06:30.568Z,19.30
2018-02-17T17:08:58.000Z,20.27
2018-02-17T17:11:25.432Z,21.80
2018-02-17T17:13:52.931Z,19.83
2018-02-17T17:16:20.377Z,20.83
2018-02-17T17:18:47.852Z,32.43
2018-02-17T17:21:15.307Z,25.43
2018-02-17T17:23:42.762Z,20.63
2018-02-17T17:26:10.193Z,21.57
2018-02-17T17:28:37.672Z,20.17
2018-02-17T17:31:05.128Z,24.93
2018-02-17T17:33:32.596Z,19.70
2018-02-17T17:36:00.033Z,21.47
2018-02-17T17:38:27.500Z,20.77
2018-02-17T17:40:54.950Z,17.23
2018-02-17T17:43:22.408Z,26.93
2018-02-17T17:45:49.850Z,26.17
2018-02-17T17:48:17.284Z,23.43
2018-02-17T17:50:44.724Z,20.20
2018-02-17T17:53:12.959Z,21.03
2018-02-17T17:55:40.423Z,26.87
2018-02-17T17:58:07.860Z,32.20
2018-02-17T18:00:35.340Z,32.47
2018-02-17T18:03:03.006Z,37.40
2018-02-17T18:05:30.448Z,51.57
2018-02-17T18:07:57.984Z,47.07
2018-02-17T18:10:25.464Z,48.47
2018-02-17T18:12:52.927Z,51.00
2018-02-17T18:15:20.376Z,51.40
2018-02-17T18:17:47.820Z,53.87
2018-02-17T18:20:15.256Z,51.20
2018-02-17T18:22:43.155Z,50.90
2018-02-17T18:25:10.616Z,62.33
2018-02-17T18:27:38.584Z,59.00
2018-02-17T18:30:06.017Z,44.67
2018-02-17T18:32:33.471Z,34.90
2018-02-17T18:35:00.895Z,37.50
2018-02-17T18:37:29.104Z,26.60
2018-02-17T18:39:56.537Z,36.57
2018-02-17T18:42:24.747Z,37.93
2018-02-17T18:44:52.179Z,32.03
2018-02-17T18:47:19.671Z,24.10
2018-02-17T18:49:47.119Z,27.80
2018-02-17T18:52:14.555Z,42.53
2018-02-17T18:54:42.533Z,34.73
2018-02-17T18:57:09.952Z,21.57
2018-02-17T18:59:38.223Z,23.23
2018-02-17T19:02:05.753Z,26.60
2018-02-17T19:04:33.188Z,51.90
2018-02-17T19:07:00.635Z,55.50
2018-02-17T19:09:28.068Z,58.90
2018-02-17T19:11:56.328Z,46.67
2018-02-17T19:14:23.716Z,29.03
2018-02-17T19:16:51.184Z,23.10
2018-02-17T19:19:18.612Z,27.33
2018-02-17T19:21:46.813Z,28.83
2018-02-17T19:24:14.292Z,21.17
2018-02-17T19:26:41.743Z,25.10
2018-02-17T19:29:09.208Z,24.47
2018-02-17T19:31:36.664Z,29.73
2018-02-17T19:34:04.099Z,22.50
2018-02-17T19:36:31.572Z,28.77
2018-02-17T19:38:59.032Z,21.20
2018-02-17T19:41:26.491Z,24.30
2018-02-17T19:43:53.948Z,22.73
2018-02-17T19:46:21.391Z,24.45
2018-02-17T19:48:48.872Z,21.77
2018-02-17T19:51:16.437Z,21.80
2018-02-17T19:53:43.980Z,23.97
2018-02-17T19:56:11.432Z,28.63
2018-02-17T19:58:38.896Z,28.70
2018-02-17T20:01:06.348Z,39.80
2018-02-17T20:03:34.223Z,25.87
2018-02-17T20:06:01.680Z,20.07
2018-02-17T20:08:29.116Z,21.73
2018-02-17T20:10:56.588Z,19.97
2018-02-17T20:13:24.036Z,21.37
2018-02-17T20:15:51.475Z,17.87
2018-02-17T20:18:18.961Z,15.03
2018-02-17T20:20:46.421Z,21.87
2018-02-17T20:23:13.976Z,17.30
2018-02-17T20:25:41.428Z,28.33
2018-02-17T20:28:08.884Z,25.43
2018-02-17T20:30:36.328Z,27.70
2018-02-17T20:33:03.759Z,37.67
2018-02-17T20:35:31.238Z,42.00
2018-02-17T20:37:58.676Z,25.70
2018-02-17T20:40:26.872Z,20.83
2018-02-17T20:42:54.332Z,28.20
2018-02-17T20:45:21.772Z,22.67
2018-02-17T20:47:49.204Z,21.00
2018-02-17T20:50:17.422Z,20.17
2018-02-17T20:52:44.862Z,23.93
2018-02-17T20:55:12.323Z,24.00
2018-02-17T20:57:39.737Z,21.40
2018-02-17T21:00:08.008Z,25.10
2018-02-17T21:02:35.379Z,20.00
2018-02-17T21:05:03.591Z,21.00
2018-02-17T21:07:31.084Z,24.33
2018-02-17T21:09:58.516Z,21.30
2018-02-17T21:12:25.950Z,26.60
2018-02-17T21:14:53.405Z,21.10
2018-02-17T21:17:20.839Z,27.07
2018-02-17T21:19:49.042Z,20.80
2018-02-17T21:22:16.480Z,28.13
2018-02-17T21:24:43.918Z,21.80
2018-02-17T21:27:12.116Z,30.03
2018-02-17T21:29:39.556Z,21.83
2018-02-17T21:32:07.769Z,29.30
2018-02-17T21:34:35.196Z,23.43
2018-02-17T21:37:02.652Z,21.17
2018-02-17T21:39:30.093Z,25.13
2018-02-17T21:41:58.291Z,27.60
2018-02-17T21:44:25.733Z,24.77
2018-02-17T21:46:53.933Z,29.20
2018-02-17T21:49:21.371Z,25.83
2018-02-17T21:51:49.568Z,26.50
2018-02-17T21:54:17.022Z,23.80
2018-02-17T21:56:44.447Z,26.00
2018-02-17T21:59:12.655Z,35.73
2018-02-17T22:01:40.098Z,34.93
2018-02-17T22:04:07.535Z,31.90
2018-02-17T22:06:35.728Z,33.03
2018-02-17T22:09:03.172Z,31.20
2018-02-17T22:11:31.383Z,28.33
2018-02-17T22:13:58.830Z,29.03
2018-02-17T22:16:26.264Z,31.63
2018-02-17T22:18:54.513Z,30.80
2018-02-17T22:21:21.927Z,27.47
2018-02-17T22:23:49.365Z,25.57
2018-02-17T22:26:16.822Z,22.43
2018-02-17T22:28:44.248Z,28.47
2018-02-17T22:31:12.457Z,20.70
2018-02-17T22:33:39.927Z,19.10
2018-02-17T22:36:07.404Z,23.10
2018-02-17T22:38:34.883Z,24.47
2018-02-17T22:41:02.302Z,29.43
2018-02-17T22:43:29.748Z,30.13
2018-02-17T22:45:57.174Z,37.93
2018-02-17T22:48:25.377Z,38.13
2018-02-17T22:50:52.829Z,30.40
2018-02-17T22:53:20.265Z,24.90
2018-02-17T22:55:48.458Z,23.97
2018-02-17T22:58:15.907Z,29.33
2018-02-17T23:00:43.343Z,26.00
2018-02-17T23:03:11.546Z,23.23
2018-02-17T23:05:39.035Z,23.97
2018-02-17T23:08:06.439Z,26.33
2018-02-17T23:10:34.648Z,25.70
2018-02-17T23:13:02.090Z,33.80
2018-02-17T23:15:29.531Z,25.80
2018-02-17T23:17:56.969Z,25.43
2018-02-17T23:20:25.173Z,23.03
2018-02-17T23:22:52.605Z,25.00
2018-02-17T23:25:20.817Z,28.83
2018-02-17T23:27:48.271Z,23.70
2018-02-17T23:30:15.704Z,17.57
2018-02-17T23:32:43.147Z,28.33
2018-02-17T23:35:11.340Z,26.43
2018-02-17T23:37:38.791Z,25.50
2018-02-17T23:40:06.984Z,16.43
2018-02-17T23:42:34.422Z,20.13
2018-02-17T23:45:01.848Z,20.53
2018-02-17T23:47:29.303Z,21.00
2018-02-17T23:49:56.748Z,20.27
2018-02-17T23:52:24.185Z,21.37
2018-02-17T23:54:51.658Z,18.00
2018-02-17T23:57:19.092Z,30.47
2018-02-17T23:59:46.558Z,24.10
